sensor_id;sensor_type;location;lat;lon;timestamp;temperature;humidity
49765;DHT22;35657;51.204;-4.130;2023-04-01T00:00:57;10.30;99.90
49765;DHT22;35657;51.204;-4.130;2023-04-01T00:03:24;10.30;99.90
49765;DHT22;35657;51.204;-4.130;2023-04-01T00:05:50;10.30;99.90
49765;DHT22;35657;51.204;-4.130;2023-04-01T00:08:15;10.30;99.90
49765;DHT22;35657;51.204;-4.130;2023-04-01T00:10:42;10.30;99.90
49765;DHT22;35657;51.204;-4.130;2023-04-01T00:13:08;10.30;99.90
49765;DHT22;35657;51.204;-4.130;2023-04-01T00:15:33;10.30;99.90
49765;DHT22;35657;51.204;-4.130;2023-04-01T00:17:59;10.30;99.90
49765;DHT22;35657;51.204;-4.130;2023-04-01T00:20:28;10.30;99.90
49765;DHT22;35657;51.204;-4.130;2023-04-01T00:22:53;10.30;99.90
49765;DHT22;35657;51.204;-4.130;2023-04-01T00:25:19;10.30;99.90
49765;DHT22;35657;51.204;-4.130;2023-04-01T00:27:45;10.30;99.90
49765;DHT22;35657;51.204;-4.130;2023-04-01T00:30:11;10.30;99.90
49765;DHT22;35657;51.204;-4.130;2023-04-01T00:32:37;10.20;99.90
49765;DHT22;35657;51.204;-4.130;2023-04-01T00:35:03;10.20;99.90
49765;DHT22;35657;51.204;-4.130;2023-04-01T00:37:29;10.20;99.90
49765;DHT22;35657;51.204;-4.130;2023-04-01T00:39:55;10.30;99.90
49765;DHT22;35657;51.204;-4.130;2023-04-01T00:42:21;10.20;99.90
49765;DHT22;35657;51.204;-4.130;2023-04-01T00:44:51;10.20;99.90
49765;DHT22;35657;51.204;-4.130;2023-04-01T00:47:18;10.20;99.90
49765;DHT22;35657;51.204;-4.130;2023-04-01T00:49:46;10.20;99.90
49765;DHT22;35657;51.204;-4.130;2023-04-01T00:52:16;10.20;99.90
49765;DHT22;35657;51.204;-4.130;2023-04-01T00:54:46;10.20;99.90
49765;DHT22;35657;51.204;-4.130;2023-04-01T00:57:17;10.20;99.90
49765;DHT22;35657;51.204;-4.130;2023-04-01T00:59:50;10.20;99.90
49765;DHT22;35657;51.204;-4.130;2023-04-01T01:02:18;10.20;99.90
49765;DHT22;35657;51.204;-4.130;2023-04-01T01:04:44;10.30;99.90
49765;DHT22;35657;51.204;-4.130;2023-04-01T01:15:17;10.40;99.90
49765;DHT22;35657;51.204;-4.130;2023-04-01T01:26:46;10.40;99.90
49765;DHT22;35657;51.204;-4.130;2023-04-01T01:35:20;10.20;99.90
49765;DHT22;35657;51.204;-4.130;2023-04-01T01:37:51;10.20;99.90
49765;DHT22;35657;51.204;-4.130;2023-04-01T01:40:18;10.20;99.90
49765;DHT22;35657;51.204;-4.130;2023-04-01T01:42:47;10.20;99.90
49765;DHT22;35657;51.204;-4.130;2023-04-01T01:45:16;10.20;99.90
49765;DHT22;35657;51.204;-4.130;2023-04-01T01:47:45;10.20;99.90
49765;DHT22;35657;51.204;-4.130;2023-04-01T01:50:12;10.20;99.90
49765;DHT22;35657;51.204;-4.130;2023-04-01T01:52:39;10.20;99.90
49765;DHT22;35657;51.204;-4.130;2023-04-01T01:55:25;10.20;99.90
49765;DHT22;35657;51.204;-4.130;2023-04-01T01:57:51;10.20;99.90
49765;DHT22;35657;51.204;-4.130;2023-04-01T02:00:18;10.20;99.90
49765;DHT22;35657;51.204;-4.130;2023-04-01T02:02:46;10.20;99.90
49765;DHT22;35657;51.204;-4.130;2023-04-01T02:05:21;10.20;99.90
49765;DHT22;35657;51.204;-4.130;2023-04-01T02:07:54;10.20;99.90
49765;DHT22;35657;51.204;-4.130;2023-04-01T02:10:22;10.20;99.90
49765;DHT22;35657;51.204;-4.130;2023-04-01T02:12:50;10.20;99.90
49765;DHT22;35657;51.204;-4.130;2023-04-01T02:15:18;10.20;99.90
49765;DHT22;35657;51.204;-4.130;2023-04-01T02:17:46;10.20;99.90
49765;DHT22;35657;51.204;-4.130;2023-04-01T02:20:19;10.10;99.90
49765;DHT22;35657;51.204;-4.130;2023-04-01T02:22:54;10.10;99.90
49765;DHT22;35657;51.204;-4.130;2023-04-01T02:25:25;10.10;99.90
49765;DHT22;35657;51.204;-4.130;2023-04-01T02:27:52;10.10;99.90
49765;DHT22;35657;51.204;-4.130;2023-04-01T02:30:19;10.10;99.90
49765;DHT22;35657;51.204;-4.130;2023-04-01T02:32:45;10.10;99.90
49765;DHT22;35657;51.204;-4.130;2023-04-01T02:35:14;10.10;99.90
49765;DHT22;35657;51.204;-4.130;2023-04-01T02:37:41;10.10;99.90
49765;DHT22;35657;51.204;-4.130;2023-04-01T02:40:10;10.10;99.90
49765;DHT22;35657;51.204;-4.130;2023-04-01T02:42:36;10.20;99.90
49765;DHT22;35657;51.204;-4.130;2023-04-01T02:45:02;10.20;99.90
49765;DHT22;35657;51.204;-4.130;2023-04-01T02:47:28;10.20;99.90
49765;DHT22;35657;51.204;-4.130;2023-04-01T02:49:54;10.20;99.90
49765;DHT22;35657;51.204;-4.130;2023-04-01T02:52:27;10.20;99.90
49765;DHT22;35657;51.204;-4.130;2023-04-01T02:54:53;10.30;99.90
49765;DHT22;35657;51.204;-4.130;2023-04-01T02:57:19;10.30;99.90
49765;DHT22;35657;51.204;-4.130;2023-04-01T02:59:45;10.30;99.90
49765;DHT22;35657;51.204;-4.130;2023-04-01T03:02:11;10.30;99.90
49765;DHT22;35657;51.204;-4.130;2023-04-01T03:04:36;10.30;99.90
49765;DHT22;35657;51.204;-4.130;2023-04-01T03:07:02;10.20;99.90
49765;DHT22;35657;51.204;-4.130;2023-04-01T03:09:28;10.20;99.90
49765;DHT22;35657;51.204;-4.130;2023-04-01T03:11:54;10.10;99.90
49765;DHT22;35657;51.204;-4.130;2023-04-01T03:14:20;10.10;99.90
49765;DHT22;35657;51.204;-4.130;2023-04-01T03:16:46;10.10;99.90
49765;DHT22;35657;51.204;-4.130;2023-04-01T03:19:12;10.10;99.90
49765;DHT22;35657;51.204;-4.130;2023-04-01T03:21:37;10.10;99.90
49765;DHT22;35657;51.204;-4.130;2023-04-01T03:24:03;10.10;99.90
49765;DHT22;35657;51.204;-4.130;2023-04-01T03:26:29;10.10;99.90
49765;DHT22;35657;51.204;-4.130;2023-04-01T03:28:55;10.10;99.90
49765;DHT22;35657;51.204;-4.130;2023-04-01T03:31:21;10.10;99.90
49765;DHT22;35657;51.204;-4.130;2023-04-01T03:33:47;10.10;99.90
49765;DHT22;35657;51.204;-4.130;2023-04-01T03:36:13;10.10;99.90
49765;DHT22;35657;51.204;-4.130;2023-04-01T03:38:43;10.10;99.90
49765;DHT22;35657;51.204;-4.130;2023-04-01T03:41:13;10.10;99.90
49765;DHT22;35657;51.204;-4.130;2023-04-01T03:43:39;10.10;99.90
49765;DHT22;35657;51.204;-4.130;2023-04-01T03:46:05;10.00;99.90
49765;DHT22;35657;51.204;-4.130;2023-04-01T03:48:31;10.10;99.90
49765;DHT22;35657;51.204;-4.130;2023-04-01T03:50:56;10.10;99.90
49765;DHT22;35657;51.204;-4.130;2023-04-01T03:53:22;10.10;99.90
49765;DHT22;35657;51.204;-4.130;2023-04-01T03:55:48;10.00;99.90
49765;DHT22;35657;51.204;-4.130;2023-04-01T03:58:14;10.00;99.90
49765;DHT22;35657;51.204;-4.130;2023-04-01T04:00:40;10.10;99.90
49765;DHT22;35657;51.204;-4.130;2023-04-01T04:03:06;10.10;99.90
49765;DHT22;35657;51.204;-4.130;2023-04-01T04:05:32;10.10;99.90
49765;DHT22;35657;51.204;-4.130;2023-04-01T04:07:58;10.10;99.90
49765;DHT22;35657;51.204;-4.130;2023-04-01T04:10:24;10.10;99.90
49765;DHT22;35657;51.204;-4.130;2023-04-01T04:12:51;10.10;99.90
49765;DHT22;35657;51.204;-4.130;2023-04-01T04:15:16;10.00;99.90
49765;DHT22;35657;51.204;-4.130;2023-04-01T04:17:44;10.10;99.90
49765;DHT22;35657;51.204;-4.130;2023-04-01T04:20:10;10.10;99.90
49765;DHT22;35657;51.204;-4.130;2023-04-01T04:22:35;10.20;99.90
49765;DHT22;35657;51.204;-4.130;2023-04-01T04:25:01;10.20;99.90
49765;DHT22;35657;51.204;-4.130;2023-04-01T04:27:27;10.30;99.90
49765;DHT22;35657;51.204;-4.130;2023-04-01T04:29:53;10.30;99.90
49765;DHT22;35657;51.204;-4.130;2023-04-01T04:32:18;10.40;99.90
49765;DHT22;35657;51.204;-4.130;2023-04-01T04:34:44;10.30;99.90
49765;DHT22;35657;51.204;-4.130;2023-04-01T04:37:10;10.30;99.90
49765;DHT22;35657;51.204;-4.130;2023-04-01T04:39:35;10.30;99.90
49765;DHT22;35657;51.204;-4.130;2023-04-01T04:42:01;10.30;99.90
49765;DHT22;35657;51.204;-4.130;2023-04-01T04:44:27;10.20;99.90
49765;DHT22;35657;51.204;-4.130;2023-04-01T04:46:53;10.20;99.90
49765;DHT22;35657;51.204;-4.130;2023-04-01T04:49:18;10.20;99.90
49765;DHT22;35657;51.204;-4.130;2023-04-01T04:51:44;10.20;99.90
49765;DHT22;35657;51.204;-4.130;2023-04-01T04:54:10;10.20;99.90
49765;DHT22;35657;51.204;-4.130;2023-04-01T04:56:36;10.20;99.90
49765;DHT22;35657;51.204;-4.130;2023-04-01T04:59:02;10.20;99.90
49765;DHT22;35657;51.204;-4.130;2023-04-01T05:01:28;10.20;99.90
49765;DHT22;35657;51.204;-4.130;2023-04-01T05:03:54;10.20;99.90
49765;DHT22;35657;51.204;-4.130;2023-04-01T05:06:20;10.20;99.90
49765;DHT22;35657;51.204;-4.130;2023-04-01T05:08:46;10.10;99.90
49765;DHT22;35657;51.204;-4.130;2023-04-01T05:11:15;10.10;99.90
49765;DHT22;35657;51.204;-4.130;2023-04-01T05:13:42;10.10;99.90
49765;DHT22;35657;51.204;-4.130;2023-04-01T05:16:13;10.10;99.90
49765;DHT22;35657;51.204;-4.130;2023-04-01T05:18:39;10.10;99.90
49765;DHT22;35657;51.204;-4.130;2023-04-01T05:21:07;10.10;99.90
49765;DHT22;35657;51.204;-4.130;2023-04-01T05:23:33;10.10;99.90
49765;DHT22;35657;51.204;-4.130;2023-04-01T05:26:06;10.10;99.90
49765;DHT22;35657;51.204;-4.130;2023-04-01T05:28:32;10.10;99.90
49765;DHT22;35657;51.204;-4.130;2023-04-01T05:31:02;10.10;99.90
49765;DHT22;35657;51.204;-4.130;2023-04-01T05:33:29;10.10;99.90
49765;DHT22;35657;51.204;-4.130;2023-04-01T05:35:55;10.10;99.90
49765;DHT22;35657;51.204;-4.130;2023-04-01T05:38:21;10.10;99.90
49765;DHT22;35657;51.204;-4.130;2023-04-01T05:40:47;10.10;99.90
49765;DHT22;35657;51.204;-4.130;2023-04-01T05:43:12;10.10;99.90
49765;DHT22;35657;51.204;-4.130;2023-04-01T05:45:38;10.10;99.90
49765;DHT22;35657;51.204;-4.130;2023-04-01T05:48:04;10.10;99.90
49765;DHT22;35657;51.204;-4.130;2023-04-01T05:50:30;10.10;99.90
49765;DHT22;35657;51.204;-4.130;2023-04-01T05:52:56;10.10;99.90
49765;DHT22;35657;51.204;-4.130;2023-04-01T05:55:22;10.10;99.90
49765;DHT22;35657;51.204;-4.130;2023-04-01T05:57:48;10.10;99.90
49765;DHT22;35657;51.204;-4.130;2023-04-01T06:00:15;10.20;99.90
49765;DHT22;35657;51.204;-4.130;2023-04-01T06:02:42;10.20;99.90
49765;DHT22;35657;51.204;-4.130;2023-04-01T06:05:26;10.20;99.90
49765;DHT22;35657;51.204;-4.130;2023-04-01T06:07:59;10.30;99.90
49765;DHT22;35657;51.204;-4.130;2023-04-01T06:27:20;10.20;99.90
49765;DHT22;35657;51.204;-4.130;2023-04-01T06:45:17;10.10;99.90
49765;DHT22;35657;51.204;-4.130;2023-04-01T06:53:06;10.10;99.90
49765;DHT22;35657;51.204;-4.130;2023-04-01T06:55:47;10.10;99.90
49765;DHT22;35657;51.204;-4.130;2023-04-01T07:00:49;10.20;99.90
49765;DHT22;35657;51.204;-4.130;2023-04-01T07:03:30;10.20;99.90
49765;DHT22;35657;51.204;-4.130;2023-04-01T07:06:04;10.20;99.90
49765;DHT22;35657;51.204;-4.130;2023-04-01T07:08:34;10.20;99.90
49765;DHT22;35657;51.204;-4.130;2023-04-01T07:11:06;10.20;99.90
49765;DHT22;35657;51.204;-4.130;2023-04-01T07:13:41;10.20;99.90
49765;DHT22;35657;51.204;-4.130;2023-04-01T07:18:55;10.10;99.90
49765;DHT22;35657;51.204;-4.130;2023-04-01T07:21:30;10.20;99.90
49765;DHT22;35657;51.204;-4.130;2023-04-01T07:24:01;10.20;99.90
49765;DHT22;35657;51.204;-4.130;2023-04-01T07:26:29;10.20;99.90
49765;DHT22;35657;51.204;-4.130;2023-04-01T07:28:56;10.20;99.90
49765;DHT22;35657;51.204;-4.130;2023-04-01T07:36:51;10.20;99.90
49765;DHT22;35657;51.204;-4.130;2023-04-01T07:42:11;10.30;99.90
49765;DHT22;35657;51.204;-4.130;2023-04-01T07:50:32;10.40;99.90
49765;DHT22;35657;51.204;-4.130;2023-04-01T07:56:05;10.50;99.90
49765;DHT22;35657;51.204;-4.130;2023-04-01T08:07:17;10.30;99.90
49765;DHT22;35657;51.204;-4.130;2023-04-01T08:12:14;10.30;99.90
49765;DHT22;35657;51.204;-4.130;2023-04-01T08:20:54;10.30;99.90
49765;DHT22;35657;51.204;-4.130;2023-04-01T08:23:38;10.20;99.90
49765;DHT22;35657;51.204;-4.130;2023-04-01T08:26:32;10.20;99.90
49765;DHT22;35657;51.204;-4.130;2023-04-01T08:31:36;10.20;99.90
49765;DHT22;35657;51.204;-4.130;2023-04-01T08:34:05;10.20;99.90
49765;DHT22;35657;51.204;-4.130;2023-04-01T08:36:38;10.10;99.90
49765;DHT22;35657;51.204;-4.130;2023-04-01T08:39:13;10.10;99.90
49765;DHT22;35657;51.204;-4.130;2023-04-01T09:05:36;10.40;99.90
49765;DHT22;35657;51.204;-4.130;2023-04-01T09:27:28;10.40;99.90
49765;DHT22;35657;51.204;-4.130;2023-04-01T09:30:58;10.50;99.90
49765;DHT22;35657;51.204;-4.130;2023-04-01T09:39:11;10.40;99.90
49765;DHT22;35657;51.204;-4.130;2023-04-01T09:55:14;10.30;99.90
49765;DHT22;35657;51.204;-4.130;2023-04-01T09:58:24;10.30;99.90
49765;DHT22;35657;51.204;-4.130;2023-04-01T10:01:19;10.30;99.90
49765;DHT22;35657;51.204;-4.130;2023-04-01T10:06:50;10.30;99.90
49765;DHT22;35657;51.204;-4.130;2023-04-01T10:21:16;10.40;99.90
49765;DHT22;35657;51.204;-4.130;2023-04-01T10:41:34;10.50;99.90
49765;DHT22;35657;51.204;-4.130;2023-04-01T10:57:45;10.70;99.90
49765;DHT22;35657;51.204;-4.130;2023-04-01T11:03:28;10.90;99.90
49765;DHT22;35657;51.204;-4.130;2023-04-01T11:12:05;10.60;99.90
49765;DHT22;35657;51.204;-4.130;2023-04-01T11:20:20;10.60;99.90
49765;DHT22;35657;51.204;-4.130;2023-04-01T11:28:44;10.50;99.90
49765;DHT22;35657;51.204;-4.130;2023-04-01T11:37:27;10.50;99.90
49765;DHT22;35657;51.204;-4.130;2023-04-01T11:43:21;10.50;99.90
49765;DHT22;35657;51.204;-4.130;2023-04-01T11:59:03;10.50;99.90
49765;DHT22;35657;51.204;-4.130;2023-04-01T12:01:56;10.50;99.90
49765;DHT22;35657;51.204;-4.130;2023-04-01T12:21:35;11.10;99.90
49765;DHT22;35657;51.204;-4.130;2023-04-01T12:24:36;11.20;99.90
49765;DHT22;35657;51.204;-4.130;2023-04-01T12:27:20;11.20;99.90
49765;DHT22;35657;51.204;-4.130;2023-04-01T12:32:39;11.20;99.90
49765;DHT22;35657;51.204;-4.130;2023-04-01T12:35:21;11.20;99.90
49765;DHT22;35657;51.204;-4.130;2023-04-01T12:43:24;11.10;99.90
49765;DHT22;35657;51.204;-4.130;2023-04-01T12:56:46;11.20;99.90
49765;DHT22;35657;51.204;-4.130;2023-04-01T13:16:31;11.60;99.90
49765;DHT22;35657;51.204;-4.130;2023-04-01T13:19:06;11.70;99.90
49765;DHT22;35657;51.204;-4.130;2023-04-01T13:29:31;12.20;99.90
49765;DHT22;35657;51.204;-4.130;2023-04-01T13:40:51;12.80;99.90
49765;DHT22;35657;51.204;-4.130;2023-04-01T13:43:23;13.00;99.90
49765;DHT22;35657;51.204;-4.130;2023-04-01T13:46:12;13.10;99.90
49765;DHT22;35657;51.204;-4.130;2023-04-01T14:02:29;12.90;99.90
49765;DHT22;35657;51.204;-4.130;2023-04-01T14:08:06;12.90;99.90
49765;DHT22;35657;51.204;-4.130;2023-04-01T14:10:53;12.90;99.90
49765;DHT22;35657;51.204;-4.130;2023-04-01T14:16:20;13.00;99.90
49765;DHT22;35657;51.204;-4.130;2023-04-01T14:30:17;13.50;99.90
49765;DHT22;35657;51.204;-4.130;2023-04-01T14:32:56;13.60;99.90
49765;DHT22;35657;51.204;-4.130;2023-04-01T14:35:44;13.40;99.90
49765;DHT22;35657;51.204;-4.130;2023-04-01T14:38:47;13.20;99.90
49765;DHT22;35657;51.204;-4.130;2023-04-01T14:49:42;13.50;99.90
49765;DHT22;35657;51.204;-4.130;2023-04-01T14:52:17;13.60;99.90
49765;DHT22;35657;51.204;-4.130;2023-04-01T14:54:48;13.70;99.90
49765;DHT22;35657;51.204;-4.130;2023-04-01T14:57:26;13.80;99.90
49765;DHT22;35657;51.204;-4.130;2023-04-01T15:00:15;13.80;99.90
49765;DHT22;35657;51.204;-4.130;2023-04-01T15:02:48;13.80;99.90
49765;DHT22;35657;51.204;-4.130;2023-04-01T15:08:29;13.90;99.90
49765;DHT22;35657;51.204;-4.130;2023-04-01T15:16:55;13.10;99.90
49765;DHT22;35657;51.204;-4.130;2023-04-01T15:20:02;12.80;99.90
49765;DHT22;35657;51.204;-4.130;2023-04-01T15:22:55;12.60;99.90
49765;DHT22;35657;51.204;-4.130;2023-04-01T15:39:13;12.40;99.90
49765;DHT22;35657;51.204;-4.130;2023-04-01T15:45:07;12.40;99.90
49765;DHT22;35657;51.204;-4.130;2023-04-01T16:01:38;11.80;99.90
49765;DHT22;35657;51.204;-4.130;2023-04-01T16:15:08;11.70;99.90
49765;DHT22;35657;51.204;-4.130;2023-04-01T16:26:15;12.00;99.90
49765;DHT22;35657;51.204;-4.130;2023-04-01T16:34:39;12.10;99.90
49765;DHT22;35657;51.204;-4.130;2023-04-01T16:37:13;12.00;99.90
49765;DHT22;35657;51.204;-4.130;2023-04-01T16:39:46;12.00;99.90
49765;DHT22;35657;51.204;-4.130;2023-04-01T16:42:56;12.00;99.90
49765;DHT22;35657;51.204;-4.130;2023-04-01T16:45:40;11.90;99.90
49765;DHT22;35657;51.204;-4.130;2023-04-01T16:48:14;11.90;99.90
49765;DHT22;35657;51.204;-4.130;2023-04-01T16:51:00;11.90;99.90
49765;DHT22;35657;51.204;-4.130;2023-04-01T16:58:34;11.90;99.90
49765;DHT22;35657;51.204;-4.130;2023-04-01T17:03:45;11.70;99.90
49765;DHT22;35657;51.204;-4.130;2023-04-01T17:06:26;11.70;99.90
49765;DHT22;35657;51.204;-4.130;2023-04-01T17:09:02;11.60;99.90
49765;DHT22;35657;51.204;-4.130;2023-04-01T17:11:41;11.60;99.90
49765;DHT22;35657;51.204;-4.130;2023-04-01T17:17:01;11.80;99.90
49765;DHT22;35657;51.204;-4.130;2023-04-01T17:22:26;11.70;99.90
49765;DHT22;35657;51.204;-4.130;2023-04-01T17:35:58;11.50;99.90
49765;DHT22;35657;51.204;-4.130;2023-04-01T17:38:59;11.60;99.90
49765;DHT22;35657;51.204;-4.130;2023-04-01T17:58:50;11.50;99.90
49765;DHT22;35657;51.204;-4.130;2023-04-01T18:10:28;11.10;99.90
49765;DHT22;35657;51.204;-4.130;2023-04-01T18:21:18;10.80;99.90
49765;DHT22;35657;51.204;-4.130;2023-04-01T18:23:55;10.80;99.90
49765;DHT22;35657;51.204;-4.130;2023-04-01T18:26:24;10.80;99.90
49765;DHT22;35657;51.204;-4.130;2023-04-01T18:29:04;10.80;99.90
49765;DHT22;35657;51.204;-4.130;2023-04-01T18:31:43;10.80;99.90
49765;DHT22;35657;51.204;-4.130;2023-04-01T18:34:44;10.80;99.90
49765;DHT22;35657;51.204;-4.130;2023-04-01T18:42:43;10.70;99.90
49765;DHT22;35657;51.204;-4.130;2023-04-01T18:45:34;10.80;99.90
49765;DHT22;35657;51.204;-4.130;2023-04-01T18:53:31;10.70;99.90
49765;DHT22;35657;51.204;-4.130;2023-04-01T18:56:25;10.50;99.90
49765;DHT22;35657;51.204;-4.130;2023-04-01T19:01:51;10.60;99.90
49765;DHT22;35657;51.204;-4.130;2023-04-01T19:04:52;10.40;99.90
49765;DHT22;35657;51.204;-4.130;2023-04-01T19:13:20;10.70;99.90
49765;DHT22;35657;51.204;-4.130;2023-04-01T19:16:25;10.60;99.90
49765;DHT22;35657;51.204;-4.130;2023-04-01T19:19:18;10.50;99.90
49765;DHT22;35657;51.204;-4.130;2023-04-01T19:46:14;10.10;99.90
49765;DHT22;35657;51.204;-4.130;2023-04-01T19:54:14;10.00;99.90
49765;DHT22;35657;51.204;-4.130;2023-04-01T19:57:06;10.00;99.90
49765;DHT22;35657;51.204;-4.130;2023-04-01T20:02:39;10.00;99.90
49765;DHT22;35657;51.204;-4.130;2023-04-01T20:08:15;9.80;99.90
49765;DHT22;35657;51.204;-4.130;2023-04-01T20:10:53;9.80;99.90
49765;DHT22;35657;51.204;-4.130;2023-04-01T20:13:43;9.90;99.90
49765;DHT22;35657;51.204;-4.130;2023-04-01T20:16:12;9.80;99.90
49765;DHT22;35657;51.204;-4.130;2023-04-01T20:18:56;9.80;99.90
49765;DHT22;35657;51.204;-4.130;2023-04-01T20:21:42;9.80;99.90
49765;DHT22;35657;51.204;-4.130;2023-04-01T20:24:26;9.80;99.90
49765;DHT22;35657;51.204;-4.130;2023-04-01T20:27:09;9.80;99.90
49765;DHT22;35657;51.204;-4.130;2023-04-01T20:35:23;9.80;99.90
49765;DHT22;35657;51.204;-4.130;2023-04-01T20:38:31;9.80;99.90
49765;DHT22;35657;51.204;-4.130;2023-04-01T20:46:22;9.90;99.90
49765;DHT22;35657;51.204;-4.130;2023-04-01T20:48:53;9.80;99.90
49765;DHT22;35657;51.204;-4.130;2023-04-01T20:51:35;9.80;99.90
49765;DHT22;35657;51.204;-4.130;2023-04-01T20:57:16;9.80;99.90
49765;DHT22;35657;51.204;-4.130;2023-04-01T21:14:24;9.70;99.90
49765;DHT22;35657;51.204;-4.130;2023-04-01T21:16:34;9.70;99.90
49765;DHT22;35657;51.204;-4.130;2023-04-01T21:41:26;9.50;99.90
49765;DHT22;35657;51.204;-4.130;2023-04-01T22:08:49;9.40;99.90
49765;DHT22;35657;51.204;-4.130;2023-04-01T22:14:26;9.30;99.90
49765;DHT22;35657;51.204;-4.130;2023-04-01T22:16:58;9.30;99.90
49765;DHT22;35657;51.204;-4.130;2023-04-01T22:22:49;9.30;99.90
49765;DHT22;35657;51.204;-4.130;2023-04-01T22:25:40;9.30;99.90
49765;DHT22;35657;51.204;-4.130;2023-04-01T22:28:11;9.30;99.90
49765;DHT22;35657;51.204;-4.130;2023-04-01T22:31:05;9.30;99.90
49765;DHT22;35657;51.204;-4.130;2023-04-01T22:42:19;9.20;99.90
49765;DHT22;35657;51.204;-4.130;2023-04-01T22:48:01;9.20;99.90
49765;DHT22;35657;51.204;-4.130;2023-04-01T22:53:44;9.10;99.90
49765;DHT22;35657;51.204;-4.130;2023-04-01T22:56:27;9.10;99.90
49765;DHT22;35657;51.204;-4.130;2023-04-01T22:59:12;9.10;99.90
49765;DHT22;35657;51.204;-4.130;2023-04-01T23:01:47;9.10;99.90
49765;DHT22;35657;51.204;-4.130;2023-04-01T23:04:16;9.10;99.90
49765;DHT22;35657;51.204;-4.130;2023-04-01T23:06:53;9.10;99.90
49765;DHT22;35657;51.204;-4.130;2023-04-01T23:09:34;9.10;99.90
49765;DHT22;35657;51.204;-4.130;2023-04-01T23:12:13;9.10;99.90
49765;DHT22;35657;51.204;-4.130;2023-04-01T23:19:51;9.00;99.90
49765;DHT22;35657;51.204;-4.130;2023-04-01T23:22:39;9.00;99.90
49765;DHT22;35657;51.204;-4.130;2023-04-01T23:27:53;9.10;99.90
49765;DHT22;35657;51.204;-4.130;2023-04-01T23:36:13;9.00;99.90
49765;DHT22;35657;51.204;-4.130;2023-04-01T23:38:42;8.90;99.90
49765;DHT22;35657;51.204;-4.130;2023-04-01T23:41:16;9.00;99.90
49765;DHT22;35657;51.204;-4.130;2023-04-01T23:43:43;9.00;99.90
49765;DHT22;35657;51.204;-4.130;2023-04-01T23:46:12;9.00;99.90
49765;DHT22;35657;51.204;-4.130;2023-04-01T23:48:43;8.90;99.90
49765;DHT22;35657;51.204;-4.130;2023-04-01T23:51:19;9.00;99.90
49765;DHT22;35657;51.204;-4.130;2023-04-01T23:53:47;9.00;99.90
49765;DHT22;35657;51.204;-4.130;2023-04-01T23:56:16;9.00;99.90
49765;DHT22;35657;51.204;-4.130;2023-04-01T23:58:50;8.90;99.90
